sensor_id;sensor_type;location;lat;lon;timestamp;P1;durP1;ratioP1;P2;durP2;ratioP2
6902;SDS011;20232;49.408;8.702;2024-01-27T05:01:51;7.97;;;4.73;;
6902;SDS011;20232;49.408;8.702;2024-01-27T05:04:17;7.97;;;4.63;;
6902;SDS011;20232;49.408;8.702;2024-01-27T05:06:45;6.10;;;4.47;;
6902;SDS011;20232;49.408;8.702;2024-01-27T05:09:11;6.80;;;4.07;;
6902;SDS011;20232;49.408;8.702;2024-01-27T05:11:37;4.93;;;4.30;;
6902;SDS011;20232;49.408;8.702;2024-01-27T05:14:02;7.97;;;4.37;;
6902;SDS011;20232;49.408;8.702;2024-01-27T05:16:28;5.63;;;4.60;;
6902;SDS011;20232;49.408;8.702;2024-01-27T05:18:53;8.37;;;4.50;;
6902;SDS011;20232;49.408;8.702;2024-01-27T05:21:19;5.30;;;4.80;;
6902;SDS011;20232;49.408;8.702;2024-01-27T05:23:44;6.50;;;4.77;;
6902;SDS011;20232;49.408;8.702;2024-01-27T05:26:10;5.30;;;4.63;;
6902;SDS011;20232;49.408;8.702;2024-01-27T05:28:36;6.47;;;4.70;;
6902;SDS011;20232;49.408;8.702;2024-01-27T05:31:03;5.63;;;4.43;;
6902;SDS011;20232;49.408;8.702;2024-01-27T05:33:29;5.77;;;4.70;;
6902;SDS011;20232;49.408;8.702;2024-01-27T05:35:54;7.33;;;4.83;;
6902;SDS011;20232;49.408;8.702;2024-01-27T05:38:20;7.13;;;4.80;;
6902;SDS011;20232;49.408;8.702;2024-01-27T05:40:45;7.27;;;5.07;;
6902;SDS011;20232;49.408;8.702;2024-01-27T05:43:11;10.07;;;4.83;;
6902;SDS011;20232;49.408;8.702;2024-01-27T05:45:36;5.77;;;4.20;;
6902;SDS011;20232;49.408;8.702;2024-01-27T05:48:02;6.93;;;5.13;;
6902;SDS011;20232;49.408;8.702;2024-01-27T05:50:27;8.40;;;5.00;;
6902;SDS011;20232;49.408;8.702;2024-01-27T05:52:55;7.37;;;4.83;;
6902;SDS011;20232;49.408;8.702;2024-01-27T05:55:20;8.10;;;5.10;;
6902;SDS011;20232;49.408;8.702;2024-01-27T05:57:46;10.30;;;5.50;;
6902;SDS011;20232;49.408;8.702;2024-01-27T06:00:12;9.70;;;5.37;;
6902;SDS011;20232;49.408;8.702;2024-01-27T06:02:38;7.13;;;5.43;;
6902;SDS011;20232;49.408;8.702;2024-01-27T06:05:04;9.27;;;5.10;;
6902;SDS011;20232;49.408;8.702;2024-01-27T06:07:29;7.03;;;5.37;;
6902;SDS011;20232;49.408;8.702;2024-01-27T06:09:55;7.33;;;5.10;;
6902;SDS011;20232;49.408;8.702;2024-01-27T06:12:21;7.23;;;5.40;;
6902;SDS011;20232;49.408;8.702;2024-01-27T06:14:46;6.63;;;4.87;;
6902;SDS011;20232;49.408;8.702;2024-01-27T06:17:12;10.90;;;5.67;;
6902;SDS011;20232;49.408;8.702;2024-01-27T06:19:40;7.00;;;5.80;;
6902;SDS011;20232;49.408;8.702;2024-01-27T06:22:05;6.47;;;4.93;;
6902;SDS011;20232;49.408;8.702;2024-01-27T06:24:31;9.57;;;5.70;;
6902;SDS011;20232;49.408;8.702;2024-01-27T06:26:56;7.80;;;5.20;;
6902;SDS011;20232;49.408;8.702;2024-01-27T06:29:22;7.27;;;5.00;;
6902;SDS011;20232;49.408;8.702;2024-01-27T06:31:48;7.03;;;5.00;;
6902;SDS011;20232;49.408;8.702;2024-01-27T06:34:13;6.17;;;5.03;;
6902;SDS011;20232;49.408;8.702;2024-01-27T06:36:39;6.57;;;4.90;;
6902;SDS011;20232;49.408;8.702;2024-01-27T06:39:04;6.63;;;4.70;;
6902;SDS011;20232;49.408;8.702;2024-01-27T06:41:30;9.30;;;5.03;;
6902;SDS011;20232;49.408;8.702;2024-01-27T06:43:55;8.47;;;5.47;;
6902;SDS011;20232;49.408;8.702;2024-01-27T06:46:20;9.70;;;5.47;;
6902;SDS011;20232;49.408;8.702;2024-01-27T06:48:46;5.37;;;4.87;;
6902;SDS011;20232;49.408;8.702;2024-01-27T06:51:11;6.53;;;5.57;;
6902;SDS011;20232;49.408;8.702;2024-01-27T06:53:37;7.83;;;4.97;;
6902;SDS011;20232;49.408;8.702;2024-01-27T06:56:02;9.17;;;5.27;;
6902;SDS011;20232;49.408;8.702;2024-01-27T06:58:28;7.17;;;4.80;;
6902;SDS011;20232;49.408;8.702;2024-01-27T07:00:53;7.60;;;4.63;;
6902;SDS011;20232;49.408;8.702;2024-01-27T07:03:19;6.83;;;4.97;;
6902;SDS011;20232;49.408;8.702;2024-01-27T07:05:45;9.63;;;4.57;;
6902;SDS011;20232;49.408;8.702;2024-01-27T07:08:10;8.77;;;5.47;;
6902;SDS011;20232;49.408;8.702;2024-01-27T07:10:36;7.40;;;5.03;;
6902;SDS011;20232;49.408;8.702;2024-01-27T07:13:01;9.83;;;4.87;;
6902;SDS011;20232;49.408;8.702;2024-01-27T07:15:26;14.77;;;5.50;;
6902;SDS011;20232;49.408;8.702;2024-01-27T07:17:53;11.20;;;6.87;;
6902;SDS011;20232;49.408;8.702;2024-01-27T07:20:18;12.77;;;5.50;;
6902;SDS011;20232;49.408;8.702;2024-01-27T07:22:46;17.20;;;5.70;;
6902;SDS011;20232;49.408;8.702;2024-01-27T07:25:12;6.77;;;5.10;;
6902;SDS011;20232;49.408;8.702;2024-01-27T07:27:38;18.27;;;5.73;;
6902;SDS011;20232;49.408;8.702;2024-01-27T07:30:03;11.00;;;5.27;;
6902;SDS011;20232;49.408;8.702;2024-01-27T07:32:30;14.27;;;5.33;;
6902;SDS011;20232;49.408;8.702;2024-01-27T07:34:55;9.67;;;5.57;;
6902;SDS011;20232;49.408;8.702;2024-01-27T07:37:21;10.30;;;5.37;;
6902;SDS011;20232;49.408;8.702;2024-01-27T07:39:46;8.07;;;4.97;;
6902;SDS011;20232;49.408;8.702;2024-01-27T07:42:14;9.37;;;5.50;;
6902;SDS011;20232;49.408;8.702;2024-01-27T07:44:39;7.70;;;5.33;;
6902;SDS011;20232;49.408;8.702;2024-01-27T07:47:05;8.10;;;5.33;;
6902;SDS011;20232;49.408;8.702;2024-01-27T07:49:30;9.13;;;5.10;;
6902;SDS011;20232;49.408;8.702;2024-01-27T07:51:56;7.57;;;5.47;;
6902;SDS011;20232;49.408;8.702;2024-01-27T07:54:21;8.60;;;4.93;;
6902;SDS011;20232;49.408;8.702;2024-01-27T07:56:47;9.57;;;5.00;;
6902;SDS011;20232;49.408;8.702;2024-01-27T07:59:13;6.37;;;5.43;;
6902;SDS011;20232;49.408;8.702;2024-01-27T08:01:41;7.13;;;5.13;;
6902;SDS011;20232;49.408;8.702;2024-01-27T08:04:06;6.30;;;5.00;;
6902;SDS011;20232;49.408;8.702;2024-01-27T08:06:32;6.30;;;4.90;;
6902;SDS011;20232;49.408;8.702;2024-01-27T08:08:58;7.30;;;4.97;;
6902;SDS011;20232;49.408;8.702;2024-01-27T08:11:24;7.50;;;5.33;;
6902;SDS011;20232;49.408;8.702;2024-01-27T08:13:49;7.93;;;5.07;;
6902;SDS011;20232;49.408;8.702;2024-01-27T08:16:15;7.43;;;5.23;;
6902;SDS011;20232;49.408;8.702;2024-01-27T08:18:41;7.53;;;5.43;;
6902;SDS011;20232;49.408;8.702;2024-01-27T08:21:10;6.97;;;5.27;;
6902;SDS011;20232;49.408;8.702;2024-01-27T08:23:39;8.13;;;5.00;;
6902;SDS011;20232;49.408;8.702;2024-01-27T08:26:04;9.23;;;5.70;;
6902;SDS011;20232;49.408;8.702;2024-01-27T08:28:30;9.03;;;5.37;;
6902;SDS011;20232;49.408;8.702;2024-01-27T08:30:55;7.83;;;5.23;;
6902;SDS011;20232;49.408;8.702;2024-01-27T08:33:21;8.97;;;4.93;;
6902;SDS011;20232;49.408;8.702;2024-01-27T08:35:46;12.43;;;5.20;;
6902;SDS011;20232;49.408;8.702;2024-01-27T08:38:13;8.87;;;5.27;;
6902;SDS011;20232;49.408;8.702;2024-01-27T08:40:38;7.27;;;5.33;;
6902;SDS011;20232;49.408;8.702;2024-01-27T08:43:04;8.50;;;5.63;;
6902;SDS011;20232;49.408;8.702;2024-01-27T08:45:31;7.40;;;5.63;;
6902;SDS011;20232;49.408;8.702;2024-01-27T08:47:57;7.80;;;5.17;;
6902;SDS011;20232;49.408;8.702;2024-01-27T08:50:22;9.23;;;5.97;;
6902;SDS011;20232;49.408;8.702;2024-01-27T08:52:47;10.47;;;6.13;;
6902;SDS011;20232;49.408;8.702;2024-01-27T08:55:13;9.73;;;5.73;;
6902;SDS011;20232;49.408;8.702;2024-01-27T08:57:39;7.07;;;6.00;;
6902;SDS011;20232;49.408;8.702;2024-01-27T09:00:04;10.07;;;5.87;;
6902;SDS011;20232;49.408;8.702;2024-01-27T09:02:30;9.73;;;5.50;;
6902;SDS011;20232;49.408;8.702;2024-01-27T09:04:56;11.17;;;5.80;;
6902;SDS011;20232;49.408;8.702;2024-01-27T09:07:21;10.10;;;5.60;;
6902;SDS011;20232;49.408;8.702;2024-01-27T09:09:49;9.00;;;5.93;;
6902;SDS011;20232;49.408;8.702;2024-01-27T09:12:14;11.13;;;7.30;;
6902;SDS011;20232;49.408;8.702;2024-01-27T09:14:40;12.53;;;6.60;;
6902;SDS011;20232;49.408;8.702;2024-01-27T09:17:05;9.87;;;6.30;;
6902;SDS011;20232;49.408;8.702;2024-01-27T09:19:31;8.40;;;6.17;;
6902;SDS011;20232;49.408;8.702;2024-01-27T09:21:56;10.73;;;6.27;;
6902;SDS011;20232;49.408;8.702;2024-01-27T09:24:21;9.57;;;6.17;;
6902;SDS011;20232;49.408;8.702;2024-01-27T09:26:47;14.10;;;6.37;;
6902;SDS011;20232;49.408;8.702;2024-01-27T09:29:12;8.50;;;6.33;;
6902;SDS011;20232;49.408;8.702;2024-01-27T09:31:38;8.53;;;6.07;;
6902;SDS011;20232;49.408;8.702;2024-01-27T09:34:03;14.13;;;6.90;;
6902;SDS011;20232;49.408;8.702;2024-01-27T09:36:29;7.10;;;5.90;;
6902;SDS011;20232;49.408;8.702;2024-01-27T09:38:54;9.00;;;5.87;;
6902;SDS011;20232;49.408;8.702;2024-01-27T09:41:20;7.57;;;5.50;;
6902;SDS011;20232;49.408;8.702;2024-01-27T09:43:46;12.50;;;6.60;;
6902;SDS011;20232;49.408;8.702;2024-01-27T09:46:15;9.30;;;5.83;;
6902;SDS011;20232;49.408;8.702;2024-01-27T09:48:42;7.00;;;5.57;;
6902;SDS011;20232;49.408;8.702;2024-01-27T09:51:11;11.30;;;6.67;;
6902;SDS011;20232;49.408;8.702;2024-01-27T09:53:36;11.63;;;6.97;;
6902;SDS011;20232;49.408;8.702;2024-01-27T09:56:02;12.80;;;7.10;;
6902;SDS011;20232;49.408;8.702;2024-01-27T09:58:31;10.03;;;6.67;;
6902;SDS011;20232;49.408;8.702;2024-01-27T10:00:57;13.40;;;6.50;;
6902;SDS011;20232;49.408;8.702;2024-01-27T10:03:27;11.83;;;6.13;;
6902;SDS011;20232;49.408;8.702;2024-01-27T10:05:53;11.77;;;7.17;;
6902;SDS011;20232;49.408;8.702;2024-01-27T10:08:23;8.67;;;6.37;;
6902;SDS011;20232;49.408;8.702;2024-01-27T10:10:55;8.37;;;6.17;;
6902;SDS011;20232;49.408;8.702;2024-01-27T10:13:24;11.63;;;6.50;;
6902;SDS011;20232;49.408;8.702;2024-01-27T10:18:31;11.10;;;6.43;;
6902;SDS011;20232;49.408;8.702;2024-01-27T10:20:57;11.73;;;6.63;;
6902;SDS011;20232;49.408;8.702;2024-01-27T10:23:23;8.23;;;5.87;;
6902;SDS011;20232;49.408;8.702;2024-01-27T10:25:49;10.90;;;5.97;;
6902;SDS011;20232;49.408;8.702;2024-01-27T10:28:15;13.20;;;6.20;;
6902;SDS011;20232;49.408;8.702;2024-01-27T10:30:40;12.67;;;6.60;;
6902;SDS011;20232;49.408;8.702;2024-01-27T10:33:09;9.47;;;6.23;;
6902;SDS011;20232;49.408;8.702;2024-01-27T10:35:43;10.30;;;6.63;;
6902;SDS011;20232;49.408;8.702;2024-01-27T10:38:09;11.37;;;7.27;;
6902;SDS011;20232;49.408;8.702;2024-01-27T10:40:35;10.33;;;7.03;;
6902;SDS011;20232;49.408;8.702;2024-01-27T10:43:05;10.93;;;6.33;;
6902;SDS011;20232;49.408;8.702;2024-01-27T10:45:35;6.23;;;5.40;;
6902;SDS011;20232;49.408;8.702;2024-01-27T10:48:02;10.07;;;6.17;;
6902;SDS011;20232;49.408;8.702;2024-01-27T10:50:29;9.27;;;6.03;;
6902;SDS011;20232;49.408;8.702;2024-01-27T10:52:57;7.93;;;5.90;;
6902;SDS011;20232;49.408;8.702;2024-01-27T10:55:23;12.17;;;6.50;;
6902;SDS011;20232;49.408;8.702;2024-01-27T10:57:49;11.87;;;5.90;;
6902;SDS011;20232;49.408;8.702;2024-01-27T11:00:16;7.63;;;5.07;;
6902;SDS011;20232;49.408;8.702;2024-01-27T11:02:42;10.80;;;4.97;;
6902;SDS011;20232;49.408;8.702;2024-01-27T11:05:10;11.73;;;4.70;;
6902;SDS011;20232;49.408;8.702;2024-01-27T11:07:35;12.83;;;5.93;;
6902;SDS011;20232;49.408;8.702;2024-01-27T11:10:03;6.73;;;3.90;;
6902;SDS011;20232;49.408;8.702;2024-01-27T11:12:28;9.10;;;4.10;;
6902;SDS011;20232;49.408;8.702;2024-01-27T11:14:54;7.03;;;3.70;;
6902;SDS011;20232;49.408;8.702;2024-01-27T11:17:23;7.07;;;3.17;;
6902;SDS011;20232;49.408;8.702;2024-01-27T11:19:49;5.27;;;2.70;;
6902;SDS011;20232;49.408;8.702;2024-01-27T11:22:28;9.50;;;3.50;;
6902;SDS011;20232;49.408;8.702;2024-01-27T11:25:15;9.07;;;3.87;;
6902;SDS011;20232;49.408;8.702;2024-01-27T11:27:43;10.63;;;2.93;;
6902;SDS011;20232;49.408;8.702;2024-01-27T11:30:31;6.83;;;2.90;;
6902;SDS011;20232;49.408;8.702;2024-01-27T11:33:01;5.83;;;3.10;;
6902;SDS011;20232;49.408;8.702;2024-01-27T11:35:27;6.27;;;3.03;;
6902;SDS011;20232;49.408;8.702;2024-01-27T11:37:54;8.87;;;3.30;;
6902;SDS011;20232;49.408;8.702;2024-01-27T11:40:20;7.17;;;3.60;;
6902;SDS011;20232;49.408;8.702;2024-01-27T11:42:58;6.50;;;3.30;;
6902;SDS011;20232;49.408;8.702;2024-01-27T11:45:28;6.97;;;3.17;;
6902;SDS011;20232;49.408;8.702;2024-01-27T11:47:57;5.53;;;3.23;;
6902;SDS011;20232;49.408;8.702;2024-01-27T11:50:23;10.97;;;4.67;;
6902;SDS011;20232;49.408;8.702;2024-01-27T11:52:49;8.07;;;3.97;;
6902;SDS011;20232;49.408;8.702;2024-01-27T11:55:14;9.03;;;4.17;;
6902;SDS011;20232;49.408;8.702;2024-01-27T11:57:43;8.83;;;4.03;;
6902;SDS011;20232;49.408;8.702;2024-01-27T12:00:09;6.13;;;2.67;;
6902;SDS011;20232;49.408;8.702;2024-01-27T12:02:36;7.43;;;3.00;;
6902;SDS011;20232;49.408;8.702;2024-01-27T12:05:02;10.00;;;3.10;;
6902;SDS011;20232;49.408;8.702;2024-01-27T12:07:27;5.27;;;2.90;;
6902;SDS011;20232;49.408;8.702;2024-01-27T12:09:52;10.30;;;3.30;;
6902;SDS011;20232;49.408;8.702;2024-01-27T12:12:20;6.63;;;2.90;;
6902;SDS011;20232;49.408;8.702;2024-01-27T12:14:49;11.43;;;3.30;;
6902;SDS011;20232;49.408;8.702;2024-01-27T12:17:15;9.47;;;3.60;;
6902;SDS011;20232;49.408;8.702;2024-01-27T12:19:47;4.17;;;3.13;;
6902;SDS011;20232;49.408;8.702;2024-01-27T12:24:47;12.20;;;3.67;;
6902;SDS011;20232;49.408;8.702;2024-01-27T12:27:13;8.77;;;3.40;;
6902;SDS011;20232;49.408;8.702;2024-01-27T12:29:40;7.80;;;4.13;;
6902;SDS011;20232;49.408;8.702;2024-01-27T12:32:06;9.20;;;4.07;;
6902;SDS011;20232;49.408;8.702;2024-01-27T12:34:31;11.07;;;4.57;;
6902;SDS011;20232;49.408;8.702;2024-01-27T12:36:59;7.30;;;4.13;;
6902;SDS011;20232;49.408;8.702;2024-01-27T12:39:25;8.07;;;4.47;;
6902;SDS011;20232;49.408;8.702;2024-01-27T12:41:51;11.63;;;4.50;;
6902;SDS011;20232;49.408;8.702;2024-01-27T12:44:16;8.30;;;4.10;;
6902;SDS011;20232;49.408;8.702;2024-01-27T12:46:41;10.50;;;4.30;;
6902;SDS011;20232;49.408;8.702;2024-01-27T12:49:07;9.77;;;4.23;;
6902;SDS011;20232;49.408;8.702;2024-01-27T12:51:33;12.53;;;5.93;;
6902;SDS011;20232;49.408;8.702;2024-01-27T12:53:58;11.93;;;5.43;;
6902;SDS011;20232;49.408;8.702;2024-01-27T12:56:23;7.50;;;3.70;;
6902;SDS011;20232;49.408;8.702;2024-01-27T12:58:49;7.40;;;4.00;;
6902;SDS011;20232;49.408;8.702;2024-01-27T13:01:14;8.60;;;3.87;;
6902;SDS011;20232;49.408;8.702;2024-01-27T13:03:40;14.83;;;4.23;;
6902;SDS011;20232;49.408;8.702;2024-01-27T13:06:06;7.73;;;3.20;;
6902;SDS011;20232;49.408;8.702;2024-01-27T13:08:31;7.37;;;3.23;;
6902;SDS011;20232;49.408;8.702;2024-01-27T13:10:58;7.90;;;3.37;;
6902;SDS011;20232;49.408;8.702;2024-01-27T13:13:24;5.83;;;3.07;;
6902;SDS011;20232;49.408;8.702;2024-01-27T13:15:49;6.97;;;3.30;;
6902;SDS011;20232;49.408;8.702;2024-01-27T13:18:14;8.87;;;2.90;;
6902;SDS011;20232;49.408;8.702;2024-01-27T13:20:40;7.90;;;2.90;;
6902;SDS011;20232;49.408;8.702;2024-01-27T13:23:06;3.67;;;2.67;;
6902;SDS011;20232;49.408;8.702;2024-01-27T13:25:32;9.73;;;3.30;;
6902;SDS011;20232;49.408;8.702;2024-01-27T13:27:57;6.60;;;3.00;;
6902;SDS011;20232;49.408;8.702;2024-01-27T13:30:22;5.97;;;2.80;;
6902;SDS011;20232;49.408;8.702;2024-01-27T13:32:49;5.10;;;3.07;;
6902;SDS011;20232;49.408;8.702;2024-01-27T13:35:14;7.90;;;3.03;;
6902;SDS011;20232;49.408;8.702;2024-01-27T13:37:40;9.33;;;3.23;;
6902;SDS011;20232;49.408;8.702;2024-01-27T13:40:05;5.40;;;2.50;;
6902;SDS011;20232;49.408;8.702;2024-01-27T13:42:32;3.73;;;2.07;;
6902;SDS011;20232;49.408;8.702;2024-01-27T13:44:58;5.93;;;2.40;;
6902;SDS011;20232;49.408;8.702;2024-01-27T13:47:24;2.80;;;2.03;;
6902;SDS011;20232;49.408;8.702;2024-01-27T13:49:50;3.83;;;1.90;;
6902;SDS011;20232;49.408;8.702;2024-01-27T13:52:15;3.93;;;2.30;;
6902;SDS011;20232;49.408;8.702;2024-01-27T13:54:41;5.03;;;2.00;;
6902;SDS011;20232;49.408;8.702;2024-01-27T13:57:06;4.50;;;2.33;;
6902;SDS011;20232;49.408;8.702;2024-01-27T13:59:33;4.07;;;2.23;;
6902;SDS011;20232;49.408;8.702;2024-01-27T14:01:58;5.47;;;2.30;;
6902;SDS011;20232;49.408;8.702;2024-01-27T14:04:24;4.53;;;2.17;;
6902;SDS011;20232;49.408;8.702;2024-01-27T14:06:53;3.87;;;2.20;;
6902;SDS011;20232;49.408;8.702;2024-01-27T14:09:24;5.93;;;2.23;;
6902;SDS011;20232;49.408;8.702;2024-01-27T14:11:50;5.90;;;2.23;;
6902;SDS011;20232;49.408;8.702;2024-01-27T14:14:16;4.50;;;2.40;;
6902;SDS011;20232;49.408;8.702;2024-01-27T14:16:44;6.47;;;2.13;;
6902;SDS011;20232;49.408;8.702;2024-01-27T14:19:10;6.87;;;2.80;;
6902;SDS011;20232;49.408;8.702;2024-01-27T14:21:36;4.17;;;2.00;;
6902;SDS011;20232;49.408;8.702;2024-01-27T14:24:02;7.60;;;2.60;;
6902;SDS011;20232;49.408;8.702;2024-01-27T14:26:30;4.83;;;2.50;;
6902;SDS011;20232;49.408;8.702;2024-01-27T14:28:55;4.13;;;2.33;;
6902;SDS011;20232;49.408;8.702;2024-01-27T14:31:21;7.93;;;3.07;;
6902;SDS011;20232;49.408;8.702;2024-01-27T14:33:47;4.87;;;2.63;;
6902;SDS011;20232;49.408;8.702;2024-01-27T14:36:12;8.00;;;3.20;;
6902;SDS011;20232;49.408;8.702;2024-01-27T14:38:38;6.87;;;3.20;;
6902;SDS011;20232;49.408;8.702;2024-01-27T14:41:05;11.97;;;3.10;;
6902;SDS011;20232;49.408;8.702;2024-01-27T14:43:31;5.93;;;3.10;;
6902;SDS011;20232;49.408;8.702;2024-01-27T14:45:59;8.57;;;3.83;;
6902;SDS011;20232;49.408;8.702;2024-01-27T14:48:25;4.70;;;3.00;;
6902;SDS011;20232;49.408;8.702;2024-01-27T14:50:51;5.90;;;3.40;;
6902;SDS011;20232;49.408;8.702;2024-01-27T14:53:27;7.40;;;3.50;;
6902;SDS011;20232;49.408;8.702;2024-01-27T14:55:53;4.77;;;2.70;;
6902;SDS011;20232;49.408;8.702;2024-01-27T14:58:21;6.93;;;2.90;;
6902;SDS011;20232;49.408;8.702;2024-01-27T15:00:47;5.33;;;2.67;;
6902;SDS011;20232;49.408;8.702;2024-01-27T15:03:18;10.30;;;3.00;;
6902;SDS011;20232;49.408;8.702;2024-01-27T15:05:44;6.70;;;2.93;;
6902;SDS011;20232;49.408;8.702;2024-01-27T15:08:09;7.97;;;3.00;;
6902;SDS011;20232;49.408;8.702;2024-01-27T15:10:35;5.33;;;3.23;;
6902;SDS011;20232;49.408;8.702;2024-01-27T15:13:00;5.53;;;3.23;;
6902;SDS011;20232;49.408;8.702;2024-01-27T15:15:26;5.70;;;3.30;;
6902;SDS011;20232;49.408;8.702;2024-01-27T15:17:51;9.17;;;4.60;;
6902;SDS011;20232;49.408;8.702;2024-01-27T15:20:20;6.43;;;4.00;;
6902;SDS011;20232;49.408;8.702;2024-01-27T15:22:45;4.97;;;2.93;;
6902;SDS011;20232;49.408;8.702;2024-01-27T15:25:11;5.37;;;3.50;;
6902;SDS011;20232;49.408;8.702;2024-01-27T15:27:36;2.90;;;2.60;;
6902;SDS011;20232;49.408;8.702;2024-01-27T15:30:02;3.77;;;2.80;;
6902;SDS011;20232;49.408;8.702;2024-01-27T15:32:27;8.30;;;5.50;;
6902;SDS011;20232;49.408;8.702;2024-01-27T15:34:53;8.50;;;4.13;;
6902;SDS011;20232;49.408;8.702;2024-01-27T15:37:20;5.33;;;3.40;;
6902;SDS011;20232;49.408;8.702;2024-01-27T15:39:46;5.23;;;3.60;;
6902;SDS011;20232;49.408;8.702;2024-01-27T15:42:11;7.93;;;3.53;;
6902;SDS011;20232;49.408;8.702;2024-01-27T15:44:37;8.57;;;3.97;;
6902;SDS011;20232;49.408;8.702;2024-01-27T15:47:02;5.70;;;3.60;;
6902;SDS011;20232;49.408;8.702;2024-01-27T15:49:28;4.90;;;3.17;;
6902;SDS011;20232;49.408;8.702;2024-01-27T15:51:53;5.67;;;2.83;;
6902;SDS011;20232;49.408;8.702;2024-01-27T15:54:19;6.00;;;2.93;;
6902;SDS011;20232;49.408;8.702;2024-01-27T15:56:45;3.40;;;2.43;;
6902;SDS011;20232;49.408;8.702;2024-01-27T15:59:13;2.70;;;2.50;;
6902;SDS011;20232;49.408;8.702;2024-01-27T16:01:39;7.07;;;2.70;;
6902;SDS011;20232;49.408;8.702;2024-01-27T16:04:05;4.93;;;3.20;;
6902;SDS011;20232;49.408;8.702;2024-01-27T16:06:30;7.00;;;2.87;;
6902;SDS011;20232;49.408;8.702;2024-01-27T16:08:56;4.27;;;2.70;;
6902;SDS011;20232;49.408;8.702;2024-01-27T16:11:21;5.10;;;2.83;;
6902;SDS011;20232;49.408;8.702;2024-01-27T16:13:47;5.17;;;2.60;;
6902;SDS011;20232;49.408;8.702;2024-01-27T16:16:12;4.30;;;2.70;;
6902;SDS011;20232;49.408;8.702;2024-01-27T16:18:38;4.10;;;2.50;;
6902;SDS011;20232;49.408;8.702;2024-01-27T16:21:03;5.93;;;2.57;;
6902;SDS011;20232;49.408;8.702;2024-01-27T16:23:29;5.30;;;2.13;;
6902;SDS011;20232;49.408;8.702;2024-01-27T16:25:55;4.50;;;3.03;;
6902;SDS011;20232;49.408;8.702;2024-01-27T16:28:21;5.87;;;2.60;;
6902;SDS011;20232;49.408;8.702;2024-01-27T16:30:46;3.37;;;2.37;;
6902;SDS011;20232;49.408;8.702;2024-01-27T16:33:12;4.70;;;2.40;;
6902;SDS011;20232;49.408;8.702;2024-01-27T16:35:37;2.47;;;2.23;;
6902;SDS011;20232;49.408;8.702;2024-01-27T16:38:03;4.67;;;2.80;;
6902;SDS011;20232;49.408;8.702;2024-01-27T16:40:28;5.20;;;3.40;;
6902;SDS011;20232;49.408;8.702;2024-01-27T16:42:54;10.83;;;4.07;;
6902;SDS011;20232;49.408;8.702;2024-01-27T16:45:19;3.57;;;2.93;;
6902;SDS011;20232;49.408;8.702;2024-01-27T16:47:45;4.47;;;3.33;;
6902;SDS011;20232;49.408;8.702;2024-01-27T16:50:11;6.13;;;3.10;;
6902;SDS011;20232;49.408;8.702;2024-01-27T16:52:37;4.43;;;2.70;;
6902;SDS011;20232;49.408;8.702;2024-01-27T16:55:03;6.33;;;3.20;;
6902;SDS011;20232;49.408;8.702;2024-01-27T16:57:29;3.87;;;2.73;;
6902;SDS011;20232;49.408;8.702;2024-01-27T16:59:55;3.93;;;2.80;;
6902;SDS011;20232;49.408;8.702;2024-01-27T17:02:22;5.03;;;2.80;;
6902;SDS011;20232;49.408;8.702;2024-01-27T17:04:47;2.63;;;2.43;;
6902;SDS011;20232;49.408;8.702;2024-01-27T17:07:15;5.03;;;3.47;;
6902;SDS011;20232;49.408;8.702;2024-01-27T17:09:40;7.03;;;4.20;;
6902;SDS011;20232;49.408;8.702;2024-01-27T17:12:06;4.23;;;3.43;;
6902;SDS011;20232;49.408;8.702;2024-01-27T17:14:33;8.33;;;3.80;;
6902;SDS011;20232;49.408;8.702;2024-01-27T17:16:59;7.73;;;3.77;;
6902;SDS011;20232;49.408;8.702;2024-01-27T17:19:24;8.50;;;4.73;;
6902;SDS011;20232;49.408;8.702;2024-01-27T17:21:51;5.27;;;3.77;;
6902;SDS011;20232;49.408;8.702;2024-01-27T17:24:17;7.90;;;4.03;;
6902;SDS011;20232;49.408;8.702;2024-01-27T17:26:42;6.00;;;4.07;;
6902;SDS011;20232;49.408;8.702;2024-01-27T17:29:07;5.77;;;4.53;;
6902;SDS011;20232;49.408;8.702;2024-01-27T17:31:33;11.73;;;4.40;;
6902;SDS011;20232;49.408;8.702;2024-01-27T17:33:58;7.23;;;4.13;;
6902;SDS011;20232;49.408;8.702;2024-01-27T17:36:24;9.53;;;4.00;;
6902;SDS011;20232;49.408;8.702;2024-01-27T17:38:49;7.43;;;4.20;;
6902;SDS011;20232;49.408;8.702;2024-01-27T17:41:15;6.13;;;4.40;;
6902;SDS011;20232;49.408;8.702;2024-01-27T17:43:41;5.13;;;4.00;;
6902;SDS011;20232;49.408;8.702;2024-01-27T17:46:06;9.77;;;4.30;;
6902;SDS011;20232;49.408;8.702;2024-01-27T17:48:32;5.23;;;3.70;;
6902;SDS011;20232;49.408;8.702;2024-01-27T17:50:58;5.80;;;4.10;;
6902;SDS011;20232;49.408;8.702;2024-01-27T17:53:23;7.07;;;3.97;;
6902;SDS011;20232;49.408;8.702;2024-01-27T17:55:49;10.33;;;4.40;;
6902;SDS011;20232;49.408;8.702;2024-01-27T17:58:15;4.17;;;3.73;;
6902;SDS011;20232;49.408;8.702;2024-01-27T18:00:41;8.43;;;4.40;;
6902;SDS011;20232;49.408;8.702;2024-01-27T18:03:07;5.83;;;4.20;;
6902;SDS011;20232;49.408;8.702;2024-01-27T18:05:32;7.13;;;4.10;;
6902;SDS011;20232;49.408;8.702;2024-01-27T18:07:58;9.07;;;4.10;;
6902;SDS011;20232;49.408;8.702;2024-01-27T18:10:23;7.63;;;4.50;;
6902;SDS011;20232;49.408;8.702;2024-01-27T18:12:48;13.10;;;5.43;;
6902;SDS011;20232;49.408;8.702;2024-01-27T18:15:14;9.57;;;4.63;;
6902;SDS011;20232;49.408;8.702;2024-01-27T18:17:40;16.03;;;6.67;;
6902;SDS011;20232;49.408;8.702;2024-01-27T18:20:05;8.27;;;4.37;;
6902;SDS011;20232;49.408;8.702;2024-01-27T18:22:32;8.57;;;4.40;;
6902;SDS011;20232;49.408;8.702;2024-01-27T18:24:57;10.47;;;4.57;;
6902;SDS011;20232;49.408;8.702;2024-01-27T18:27:22;8.57;;;4.30;;
6902;SDS011;20232;49.408;8.702;2024-01-27T18:29:48;9.97;;;4.30;;
6902;SDS011;20232;49.408;8.702;2024-01-27T18:32:13;7.27;;;4.07;;
6902;SDS011;20232;49.408;8.702;2024-01-27T18:34:39;5.27;;;4.03;;
6902;SDS011;20232;49.408;8.702;2024-01-27T18:37:06;8.07;;;4.43;;
6902;SDS011;20232;49.408;8.702;2024-01-27T18:39:31;10.13;;;4.80;;
6902;SDS011;20232;49.408;8.702;2024-01-27T18:41:56;6.60;;;4.47;;
6902;SDS011;20232;49.408;8.702;2024-01-27T18:44:22;10.67;;;4.80;;
6902;SDS011;20232;49.408;8.702;2024-01-27T18:46:47;12.60;;;4.90;;
6902;SDS011;20232;49.408;8.702;2024-01-27T18:49:13;7.73;;;4.60;;
6902;SDS011;20232;49.408;8.702;2024-01-27T18:51:42;7.13;;;4.90;;
6902;SDS011;20232;49.408;8.702;2024-01-27T18:54:09;9.03;;;4.63;;
6902;SDS011;20232;49.408;8.702;2024-01-27T18:56:36;10.60;;;5.33;;
6902;SDS011;20232;49.408;8.702;2024-01-27T18:59:01;12.53;;;5.57;;
6902;SDS011;20232;49.408;8.702;2024-01-27T19:01:27;8.50;;;4.67;;
6902;SDS011;20232;49.408;8.702;2024-01-27T19:03:52;8.20;;;5.00;;
6902;SDS011;20232;49.408;8.702;2024-01-27T19:06:18;6.77;;;4.90;;
6902;SDS011;20232;49.408;8.702;2024-01-27T19:08:43;10.00;;;5.23;;
6902;SDS011;20232;49.408;8.702;2024-01-27T19:11:09;11.93;;;5.20;;
6902;SDS011;20232;49.408;8.702;2024-01-27T19:13:35;10.23;;;5.20;;
6902;SDS011;20232;49.408;8.702;2024-01-27T19:16:00;7.23;;;4.73;;
6902;SDS011;20232;49.408;8.702;2024-01-27T19:18:26;11.47;;;6.57;;
6902;SDS011;20232;49.408;8.702;2024-01-27T19:20:51;16.57;;;6.53;;
6902;SDS011;20232;49.408;8.702;2024-01-27T19:23:17;10.80;;;6.43;;
6902;SDS011;20232;49.408;8.702;2024-01-27T19:25:42;10.80;;;6.63;;
6902;SDS011;20232;49.408;8.702;2024-01-27T19:28:08;8.40;;;5.40;;
6902;SDS011;20232;49.408;8.702;2024-01-27T19:30:34;8.00;;;4.90;;
6902;SDS011;20232;49.408;8.702;2024-01-27T19:32:59;9.17;;;5.20;;
6902;SDS011;20232;49.408;8.702;2024-01-27T19:35:25;11.13;;;5.27;;
6902;SDS011;20232;49.408;8.702;2024-01-27T19:37:51;13.70;;;6.23;;
6902;SDS011;20232;49.408;8.702;2024-01-27T19:40:16;11.27;;;5.50;;
6902;SDS011;20232;49.408;8.702;2024-01-27T19:42:43;7.63;;;4.63;;
6902;SDS011;20232;49.408;8.702;2024-01-27T19:45:09;12.73;;;6.30;;
6902;SDS011;20232;49.408;8.702;2024-01-27T19:47:35;9.60;;;5.67;;
6902;SDS011;20232;49.408;8.702;2024-01-27T19:50:01;7.50;;;5.03;;
6902;SDS011;20232;49.408;8.702;2024-01-27T19:52:27;5.23;;;4.60;;
6902;SDS011;20232;49.408;8.702;2024-01-27T19:54:53;12.47;;;5.10;;
6902;SDS011;20232;49.408;8.702;2024-01-27T19:57:19;10.20;;;5.63;;